createdAt,value
2022-10-30T00:03:15.420Z,5
2022-10-30T00:18:26.197Z,6.3
2022-10-30T00:33:38.733Z,6.5
2022-10-30T00:48:48.039Z,6.4
2022-10-30T01:03:57.141Z,6.7
2022-10-30T01:19:06.814Z,6.4
2022-10-30T01:34:16.342Z,6.2
2022-10-30T01:49:26.076Z,5.9
2022-10-30T02:04:38.647Z,5.4
2022-10-30T02:19:49.047Z,5.8
2022-10-30T02:34:58.658Z,6.1
2022-10-30T02:50:08.279Z,5.7
2022-10-30T03:05:17.918Z,6.3
2022-10-30T03:20:27.196Z,7.3
2022-10-30T03:35:39.186Z,6.6
2022-10-30T03:50:48.428Z,6.9
2022-10-30T04:05:56.873Z,5.9
2022-10-30T04:21:06.657Z,6.4
2022-10-30T04:36:16.034Z,6.4
2022-10-30T04:51:25.486Z,5.8
2022-10-30T05:06:38.794Z,6.4
2022-10-30T05:21:48.205Z,6.4
2022-10-30T05:36:57.764Z,6.7
2022-10-30T05:52:06.737Z,6.6
2022-10-30T06:07:16.454Z,7.3
2022-10-30T06:22:25.864Z,7.3
2022-10-30T06:37:39.291Z,7.2
2022-10-30T06:52:48.545Z,6.4
2022-10-30T07:09:16.611Z,8
2022-10-30T07:24:27.098Z,7.4
2022-10-30T07:39:38.811Z,6.9
2022-10-30T07:54:48.289Z,8
2022-10-30T08:09:58.154Z,7.6
2022-10-30T08:25:07.602Z,7.1
2022-10-30T08:40:17.078Z,6.5
2022-10-30T08:55:26.733Z,6.7
2022-10-30T09:10:38.184Z,6.4
2022-10-30T09:25:47.466Z,5.8
2022-10-30T09:40:57.159Z,6.3
2022-10-30T09:56:07.545Z,6.2
2022-10-30T10:11:17.517Z,5.9
2022-10-30T10:26:27.598Z,5.9
2022-10-30T10:41:37.729Z,5.1
2022-10-30T10:56:47.388Z,5.7
2022-10-30T11:11:57.080Z,5.9
2022-10-30T11:27:06.695Z,5.8
2022-10-30T11:42:17.271Z,5.6
2022-10-30T11:57:30.901Z,5
2022-10-30T12:12:39.925Z,5.8
2022-10-30T12:27:48.782Z,4.9
2022-10-30T12:42:58.367Z,6.5
2022-10-30T12:58:08.186Z,8.4
2022-10-30T13:13:20.013Z,11.9
2022-10-30T13:28:29.781Z,9.7
2022-10-30T13:43:43.290Z,6.1
2022-10-30T13:58:52.177Z,5.7
2022-10-30T14:14:01.570Z,6
2022-10-30T14:29:10.631Z,5.8
2022-10-30T14:44:20.016Z,5.9
2022-10-30T14:59:29.609Z,4.9
2022-10-30T15:14:54.622Z,5.7
2022-10-30T15:30:04.682Z,6.1
2022-10-30T15:45:13.399Z,7
2022-10-30T16:00:25.494Z,6.6
2022-10-30T16:15:39.612Z,9.7
2022-10-30T16:30:49.197Z,8.3
2022-10-30T16:45:58.613Z,7.9
2022-10-30T17:01:08.497Z,8.3
2022-10-30T17:16:25.455Z,9
2022-10-30T17:31:36.719Z,12.1
2022-10-30T17:46:46.306Z,11.6
2022-10-30T18:01:55.836Z,11.3
2022-10-30T18:17:05.603Z,10.9
2022-10-30T18:32:15.065Z,11.3
2022-10-30T18:47:24.477Z,10.5
2022-10-30T19:02:34.104Z,12.1
2022-10-30T19:17:44.475Z,12.9
2022-10-30T19:32:53.720Z,12.8
2022-10-30T19:48:02.690Z,12.5
2022-10-30T20:03:12.226Z,12.7
2022-10-30T20:18:21.979Z,12.5
2022-10-30T20:33:31.555Z,11.8
2022-10-30T20:48:41.039Z,12.9
2022-10-30T21:03:50.324Z,12.4
2022-10-30T21:18:59.942Z,10.4
2022-10-30T21:34:09.603Z,10.9
2022-10-30T21:49:19.255Z,11.8
2022-10-30T22:04:27.864Z,10.6
2022-10-30T22:19:37.991Z,8.4
2022-10-30T22:34:47.565Z,8.4
2022-10-30T22:49:58.318Z,8.7
2022-10-30T23:05:08.125Z,8.5
2022-10-30T23:20:17.617Z,7.5
2022-10-30T23:35:27.266Z,7.1
2022-10-30T23:50:39.589Z,9.6
